This is the latest recevied weather packets stored in our database for station/object N6ZHV-13. If no packets are shown the sender has not sent any weather packets the latest 1 day(s).
| Time | Temp. | Humidity | Pressure | Rain* | Wind** | Luminosity | Snow |
|---|---|---|---|---|---|---|---|
| 1778092490 | 19.44° C | 56% | 1020.1 hPa | 0 mm | - | - | - |
| 1778092190 | 19.44° C | 55% | 1020.2 hPa | 0 mm | - | - | - |
| 1778091890 | 18.89° C | 56% | 1020.3 hPa | 0 mm | - | - | - |
| 1778091590 | 18.89° C | 55% | 1020.3 hPa | 0 mm | - | - | - |
| 1778091290 | 18.89° C | 57% | 1020.3 hPa | 0 mm | - | - | - |
| 1778090990 | 18.89° C | 58% | 1019.1 hPa | 0 mm | - | - | - |
| 1778090690 | 18.89° C | 60% | 1019.2 hPa | 0 mm | - | - | - |
| 1778089790 | 18.33° C | 60% | 1016.7 hPa | 0 mm | - | - | - |
| 1778089490 | 18.33° C | 62% | 1020.4 hPa | 0 mm | - | - | - |
| 1778089190 | 18.33° C | 62% | 1020.4 hPa | 0 mm | - | - | - |
| 1778088890 | 18.33° C | 61% | 1020.4 hPa | 0 mm | - | - | - |
| 1778088590 | 18.33° C | 63% | 1020.5 hPa | 0 mm | - | - | - |
| 1778088290 | 18.33° C | 61% | 1020.5 hPa | 0 mm | - | - | - |
| 1778087990 | 17.78° C | 64% | 1020.5 hPa | 0 mm | - | - | - |
| 1778087390 | 17.78° C | 67% | 1020.6 hPa | 0 mm | - | - | - |
| 1778087090 | 17.22° C | 68% | 1020.7 hPa | 0 mm | - | - | - |
| 1778086490 | 17.22° C | 70% | 1020.8 hPa | 0 mm | - | - | - |
| 1778086190 | 17.22° C | 71% | 1020.8 hPa | 0 mm | - | - | - |
| 1778085890 | 17.22° C | 71% | 1020.8 hPa | 0 mm | - | - | - |
| 1778085290 | 16.67° C | 71% | 1020.9 hPa | 0 mm | - | - | - |
| 1778084690 | 16.67° C | 72% | 1021 hPa | 0 mm | - | - | - |
| 1778084390 | 16.67° C | 72% | 1021 hPa | 0 mm | - | - | - |
| 1778063990 | 11.11° C | 86% | 1019.3 hPa | 0 mm | - | - | - |
| 1778062190 | 11.67° C | 85% | 1019.2 hPa | 0 mm | - | - | - |
| 1778059190 | 12.22° C | 85% | 1019.3 hPa | 0 mm | - | - | - |
* Rain latest hour (hover to see other rain measurements)
** Current wind speed in m/s (hover to see current wind gust speed)